sensor_id;sensor_type;location;lat;lon;timestamp;pressure;altitude;pressure_sealevel;temperature;humidity
43745;BME280;29359;53.048;8.732;2023-01-31T00:00:07;102045.22;;;3.92;89.23
43745;BME280;29359;53.048;8.732;2023-01-31T00:02:08;102032.13;;;3.91;89.43
43745;BME280;29359;53.048;8.732;2023-01-31T00:04:10;102039.91;;;3.89;89.96
43745;BME280;29359;53.048;8.732;2023-01-31T00:06:19;102037.25;;;3.86;89.84
43745;BME280;29359;53.048;8.732;2023-01-31T00:08:21;102035.44;;;3.82;90.80
43745;BME280;29359;53.048;8.732;2023-01-31T00:10:22;102040.69;;;3.84;90.60
43745;BME280;29359;53.048;8.732;2023-01-31T00:12:24;102032.81;;;3.82;90.69
43745;BME280;29359;53.048;8.732;2023-01-31T00:14:25;102031.06;;;3.81;91.12
43745;BME280;29359;53.048;8.732;2023-01-31T00:16:27;102026.63;;;3.77;91.63
43745;BME280;29359;53.048;8.732;2023-01-31T00:18:29;102030.06;;;3.74;91.59
43745;BME280;29359;53.048;8.732;2023-01-31T00:20:31;102018.72;;;3.72;91.59
43745;BME280;29359;53.048;8.732;2023-01-31T00:22:32;102017.78;;;3.69;92.30
43745;BME280;29359;53.048;8.732;2023-01-31T00:24:34;102017.72;;;3.66;92.37
43745;BME280;29359;53.048;8.732;2023-01-31T00:26:35;102030.69;;;3.61;92.87
43745;BME280;29359;53.048;8.732;2023-01-31T00:28:38;102024.59;;;3.61;93.16
43745;BME280;29359;53.048;8.732;2023-01-31T00:30:40;102029.81;;;3.61;92.83
43745;BME280;29359;53.048;8.732;2023-01-31T00:32:41;102030.63;;;3.58;93.69
43745;BME280;29359;53.048;8.732;2023-01-31T00:34:43;102034.94;;;3.56;93.92
43745;BME280;29359;53.048;8.732;2023-01-31T00:36:45;102033.19;;;3.55;93.71
43745;BME280;29359;53.048;8.732;2023-01-31T00:38:55;102037.56;;;3.56;94.08
43745;BME280;29359;53.048;8.732;2023-01-31T00:40:56;102034.03;;;3.54;94.44
43745;BME280;29359;53.048;8.732;2023-01-31T00:42:58;102027.09;;;3.55;94.83
43745;BME280;29359;53.048;8.732;2023-01-31T00:44:59;102033.22;;;3.57;95.05
43745;BME280;29359;53.048;8.732;2023-01-31T00:47:01;102043.72;;;3.60;95.01
43745;BME280;29359;53.048;8.732;2023-01-31T00:49:03;102034.22;;;3.63;95.25
43745;BME280;29359;53.048;8.732;2023-01-31T00:51:05;102020.28;;;3.63;95.19
43745;BME280;29359;53.048;8.732;2023-01-31T00:53:06;102026.41;;;3.65;95.37
43745;BME280;29359;53.048;8.732;2023-01-31T00:55:08;102024.66;;;3.65;95.02
43745;BME280;29359;53.048;8.732;2023-01-31T00:57:09;102025.53;;;3.64;95.42
43745;BME280;29359;53.048;8.732;2023-01-31T00:59:11;102022.09;;;3.67;95.67
43745;BME280;29359;53.048;8.732;2023-01-31T01:01:21;102026.56;;;3.74;95.34
43745;BME280;29359;53.048;8.732;2023-01-31T01:03:23;102035.31;;;3.76;95.33
43745;BME280;29359;53.048;8.732;2023-01-31T01:05:25;102029.28;;;3.78;95.36
43745;BME280;29359;53.048;8.732;2023-01-31T01:07:26;102038.03;;;3.82;95.50
43745;BME280;29359;53.048;8.732;2023-01-31T01:09:28;102031.09;;;3.83;94.98
43745;BME280;29359;53.048;8.732;2023-01-31T01:11:31;102039.81;;;3.85;95.07
43745;BME280;29359;53.048;8.732;2023-01-31T01:13:33;102050.34;;;3.88;95.04
43745;BME280;29359;53.048;8.732;2023-01-31T01:15:38;102051.31;;;3.91;95.78
43745;BME280;29359;53.048;8.732;2023-01-31T01:17:40;102049.66;;;3.96;94.79
43745;BME280;29359;53.048;8.732;2023-01-31T01:19:41;102043.63;;;4.00;95.10
43745;BME280;29359;53.048;8.732;2023-01-31T01:21:43;102041.94;;;4.04;94.37
43745;BME280;29359;53.048;8.732;2023-01-31T01:23:45;102040.25;;;4.06;94.63
43745;BME280;29359;53.048;8.732;2023-01-31T01:25:50;102055.06;;;4.07;94.34
43745;BME280;29359;53.048;8.732;2023-01-31T01:27:51;102045.53;;;4.09;93.98
43745;BME280;29359;53.048;8.732;2023-01-31T01:29:52;102045.56;;;4.12;93.39
43745;BME280;29359;53.048;8.732;2023-01-31T01:31:54;102044.75;;;4.15;93.04
43745;BME280;29359;53.048;8.732;2023-01-31T01:34:01;102049.13;;;4.16;92.72
43745;BME280;29359;53.048;8.732;2023-01-31T01:36:05;102044.72;;;4.13;92.36
43745;BME280;29359;53.048;8.732;2023-01-31T01:38:06;102049.97;;;4.15;92.43
43745;BME280;29359;53.048;8.732;2023-01-31T01:40:08;102045.63;;;4.15;93.11
43745;BME280;29359;53.048;8.732;2023-01-31T01:42:16;102049.06;;;4.13;92.88
43745;BME280;29359;53.048;8.732;2023-01-31T01:46:43;102055.91;;;4.04;92.66
43745;BME280;29359;53.048;8.732;2023-01-31T01:48:49;102052.38;;;4.02;92.81
43745;BME280;29359;53.048;8.732;2023-01-31T01:50:51;102063.66;;;4.00;93.22
43745;BME280;29359;53.048;8.732;2023-01-31T01:53:05;102062.72;;;3.96;93.92
43745;BME280;29359;53.048;8.732;2023-01-31T01:55:13;102053.06;;;3.92;94.00
43745;BME280;29359;53.048;8.732;2023-01-31T01:57:20;102052.91;;;3.86;94.41
43745;BME280;29359;53.048;8.732;2023-01-31T01:59:44;102074.66;;;3.85;94.89
43745;BME280;29359;53.048;8.732;2023-01-31T02:01:48;102069.38;;;3.82;95.01
43745;BME280;29359;53.048;8.732;2023-01-31T02:03:51;102070.22;;;3.79;95.74
43745;BME280;29359;53.048;8.732;2023-01-31T02:05:55;102066.75;;;3.81;95.80
43745;BME280;29359;53.048;8.732;2023-01-31T02:08:00;102066.72;;;3.79;96.29
43745;BME280;29359;53.048;8.732;2023-01-31T02:10:16;102065.00;;;3.81;96.87
43745;BME280;29359;53.048;8.732;2023-01-31T02:12:20;102068.47;;;3.80;97.11
43745;BME280;29359;53.048;8.732;2023-01-31T02:14:22;102064.13;;;3.81;97.21
43745;BME280;29359;53.048;8.732;2023-01-31T02:16:23;102072.00;;;3.82;97.54
43745;BME280;29359;53.048;8.732;2023-01-31T02:18:25;102069.34;;;3.81;97.27
43745;BME280;29359;53.048;8.732;2023-01-31T02:22:48;102082.47;;;3.84;98.14
43745;BME280;29359;53.048;8.732;2023-01-31T02:36:59;102077.28;;;3.85;99.49
43745;BME280;29359;53.048;8.732;2023-01-31T02:41:35;102076.41;;;3.85;100.00
43745;BME280;29359;53.048;8.732;2023-01-31T02:46:17;102061.53;;;3.81;99.87
43745;BME280;29359;53.048;8.732;2023-01-31T02:48:54;102073.75;;;3.83;100.00
43745;BME280;29359;53.048;8.732;2023-01-31T02:51:13;102075.50;;;3.83;99.96
43745;BME280;29359;53.048;8.732;2023-01-31T02:54:19;102068.53;;;3.83;100.00
43745;BME280;29359;53.048;8.732;2023-01-31T02:56:25;102070.25;;;3.81;100.00
43745;BME280;29359;53.048;8.732;2023-01-31T02:58:31;102069.34;;;3.81;100.00
43745;BME280;29359;53.048;8.732;2023-01-31T03:00:35;102070.22;;;3.79;100.00
43745;BME280;29359;53.048;8.732;2023-01-31T03:02:38;102072.84;;;3.81;100.00
43745;BME280;29359;53.048;8.732;2023-01-31T03:04:40;102058.06;;;3.82;100.00
43745;BME280;29359;53.048;8.732;2023-01-31T03:06:51;102058.09;;;3.83;100.00
43745;BME280;29359;53.048;8.732;2023-01-31T03:14:07;102052.06;;;3.87;99.54
43745;BME280;29359;53.048;8.732;2023-01-31T03:18:49;102038.19;;;3.90;98.98
43745;BME280;29359;53.048;8.732;2023-01-31T03:20:59;102039.09;;;3.90;98.76
43745;BME280;29359;53.048;8.732;2023-01-31T03:23:08;102039.09;;;3.90;98.10
43745;BME280;29359;53.048;8.732;2023-01-31T03:25:13;102038.19;;;3.90;97.47
43745;BME280;29359;53.048;8.732;2023-01-31T03:27:15;102025.97;;;3.89;97.75
43745;BME280;29359;53.048;8.732;2023-01-31T03:29:18;102032.91;;;3.87;96.97
43745;BME280;29359;53.048;8.732;2023-01-31T03:33:39;102031.09;;;3.83;96.42
43745;BME280;29359;53.048;8.732;2023-01-31T03:35:46;102035.44;;;3.82;96.17
43745;BME280;29359;53.048;8.732;2023-01-31T03:38:02;102038.00;;;3.81;96.35
43745;BME280;29359;53.048;8.732;2023-01-31T03:40:20;102033.66;;;3.79;96.02
43745;BME280;29359;53.048;8.732;2023-01-31T03:46:55;102032.66;;;3.73;95.36
43745;BME280;29359;53.048;8.732;2023-01-31T03:49:01;102034.31;;;3.69;95.18
43745;BME280;29359;53.048;8.732;2023-01-31T03:51:07;102042.97;;;3.67;95.49
43745;BME280;29359;53.048;8.732;2023-01-31T03:53:13;102034.19;;;3.62;95.14
43745;BME280;29359;53.048;8.732;2023-01-31T03:55:20;102034.97;;;3.58;95.63
43745;BME280;29359;53.048;8.732;2023-01-31T03:57:30;102041.00;;;3.55;95.35
43745;BME280;29359;53.048;8.732;2023-01-31T03:59:37;102035.69;;;3.49;95.80
43745;BME280;29359;53.048;8.732;2023-01-31T04:01:44;102036.47;;;3.46;95.79
43745;BME280;29359;53.048;8.732;2023-01-31T04:03:54;102034.69;;;3.44;95.90
43745;BME280;29359;53.048;8.732;2023-01-31T04:05:56;102041.59;;;3.42;95.92
43745;BME280;29359;53.048;8.732;2023-01-31T04:07:59;102030.19;;;3.37;96.07
43745;BME280;29359;53.048;8.732;2023-01-31T04:10:01;102044.03;;;3.33;95.90
43745;BME280;29359;53.048;8.732;2023-01-31T04:12:02;102039.66;;;3.32;95.74
43745;BME280;29359;53.048;8.732;2023-01-31T04:14:04;102037.06;;;3.33;96.02
43745;BME280;29359;53.048;8.732;2023-01-31T04:16:06;102031.81;;;3.32;96.03
43745;BME280;29359;53.048;8.732;2023-01-31T04:18:08;102030.03;;;3.29;95.98
43745;BME280;29359;53.048;8.732;2023-01-31T04:20:10;102026.53;;;3.29;96.01
43745;BME280;29359;53.048;8.732;2023-01-31T04:22:13;102040.47;;;3.29;95.64
43745;BME280;29359;53.048;8.732;2023-01-31T04:24:14;102043.06;;;3.29;95.83
43745;BME280;29359;53.048;8.732;2023-01-31T04:26:16;102030.84;;;3.27;96.14
43745;BME280;29359;53.048;8.732;2023-01-31T04:28:17;102037.84;;;3.29;96.08
43745;BME280;29359;53.048;8.732;2023-01-31T04:30:19;102030.03;;;3.29;95.87
43745;BME280;29359;53.048;8.732;2023-01-31T04:32:20;102027.41;;;3.29;95.76
43745;BME280;29359;53.048;8.732;2023-01-31T04:34:22;102018.72;;;3.29;95.71
43745;BME280;29359;53.048;8.732;2023-01-31T04:36:24;102023.03;;;3.27;95.69
43745;BME280;29359;53.048;8.732;2023-01-31T04:38:26;102020.41;;;3.27;96.22
43745;BME280;29359;53.048;8.732;2023-01-31T04:40:27;102023.03;;;3.27;96.12
43745;BME280;29359;53.048;8.732;2023-01-31T04:42:29;102022.13;;;3.26;96.22
43745;BME280;29359;53.048;8.732;2023-01-31T04:44:30;102019.59;;;3.29;96.51
43745;BME280;29359;53.048;8.732;2023-01-31T04:46:32;102016.97;;;3.29;96.39
43745;BME280;29359;53.048;8.732;2023-01-31T04:48:33;102017.03;;;3.32;96.28
43745;BME280;29359;53.048;8.732;2023-01-31T04:50:35;102012.72;;;3.34;96.35
43745;BME280;29359;53.048;8.732;2023-01-31T04:52:37;102011.03;;;3.36;96.39
43745;BME280;29359;53.048;8.732;2023-01-31T04:54:38;102010.19;;;3.37;96.07
43745;BME280;29359;53.048;8.732;2023-01-31T04:56:40;102006.75;;;3.40;95.71
43745;BME280;29359;53.048;8.732;2023-01-31T04:58:41;102009.38;;;3.40;95.87
43745;BME280;29359;53.048;8.732;2023-01-31T05:00:43;102009.38;;;3.40;95.62
43745;BME280;29359;53.048;8.732;2023-01-31T05:02:45;102003.28;;;3.41;95.93
43745;BME280;29359;53.048;8.732;2023-01-31T05:04:47;101999.84;;;3.43;95.46
43745;BME280;29359;53.048;8.732;2023-01-31T05:06:48;101996.41;;;3.44;95.68
43745;BME280;29359;53.048;8.732;2023-01-31T05:08:50;101986.84;;;3.45;95.88
43745;BME280;29359;53.048;8.732;2023-01-31T05:10:58;101992.09;;;3.46;95.42
43745;BME280;29359;53.048;8.732;2023-01-31T05:13:03;101986.03;;;3.47;95.08
43745;BME280;29359;53.048;8.732;2023-01-31T05:15:05;101982.56;;;3.47;95.57
43745;BME280;29359;53.048;8.732;2023-01-31T05:17:11;101986.88;;;3.46;95.62
43745;BME280;29359;53.048;8.732;2023-01-31T05:19:14;101977.38;;;3.49;95.43
43745;BME280;29359;53.048;8.732;2023-01-31T05:21:16;101975.59;;;3.47;95.35
43745;BME280;29359;53.048;8.732;2023-01-31T05:23:18;101974.72;;;3.47;95.51
43745;BME280;29359;53.048;8.732;2023-01-31T05:25:20;101972.16;;;3.50;95.72
43745;BME280;29359;53.048;8.732;2023-01-31T05:27:22;101971.28;;;3.50;95.27
43745;BME280;29359;53.048;8.732;2023-01-31T05:29:28;101975.72;;;3.54;95.38
43745;BME280;29359;53.048;8.732;2023-01-31T05:31:29;101966.19;;;3.56;95.36
43745;BME280;29359;53.048;8.732;2023-01-31T05:33:31;101964.50;;;3.59;94.99
43745;BME280;29359;53.048;8.732;2023-01-31T05:35:33;101968.91;;;3.62;95.38
43745;BME280;29359;53.048;8.732;2023-01-31T05:37:36;101964.59;;;3.64;95.06
43745;BME280;29359;53.048;8.732;2023-01-31T05:39:37;101967.22;;;3.65;94.86
43745;BME280;29359;53.048;8.732;2023-01-31T05:41:39;101968.09;;;3.66;94.06
43745;BME280;29359;53.048;8.732;2023-01-31T05:43:40;101967.28;;;3.68;94.85
43745;BME280;29359;53.048;8.732;2023-01-31T05:45:42;101960.31;;;3.69;94.11
43745;BME280;29359;53.048;8.732;2023-01-31T05:47:45;101965.56;;;3.70;94.14
43745;BME280;29359;53.048;8.732;2023-01-31T05:49:47;101962.13;;;3.73;94.24
43745;BME280;29359;53.048;8.732;2023-01-31T05:51:48;101963.91;;;3.75;93.97
43745;BME280;29359;53.048;8.732;2023-01-31T05:53:50;101964.81;;;3.77;94.43
43745;BME280;29359;53.048;8.732;2023-01-31T05:55:52;101967.47;;;3.79;94.08
43745;BME280;29359;53.048;8.732;2023-01-31T05:57:54;101967.50;;;3.82;93.57
43745;BME280;29359;53.048;8.732;2023-01-31T05:59:56;101972.75;;;3.84;94.31
43745;BME280;29359;53.048;8.732;2023-01-31T06:01:58;101961.50;;;3.88;93.39
43745;BME280;29359;53.048;8.732;2023-01-31T06:04:00;101953.69;;;3.89;94.21
43745;BME280;29359;53.048;8.732;2023-01-31T06:06:02;101957.25;;;3.91;93.63
43745;BME280;29359;53.048;8.732;2023-01-31T06:08:05;101958.16;;;3.93;94.02
43745;BME280;29359;53.048;8.732;2023-01-31T06:10:09;101953.84;;;3.97;93.47
43745;BME280;29359;53.048;8.732;2023-01-31T06:12:12;101952.19;;;4.00;93.08
43745;BME280;29359;53.048;8.732;2023-01-31T06:14:17;101957.41;;;4.00;93.67
43745;BME280;29359;53.048;8.732;2023-01-31T06:16:18;101947.84;;;4.02;93.71
43745;BME280;29359;53.048;8.732;2023-01-31T06:18:20;101943.47;;;4.01;93.28
43745;BME280;29359;53.048;8.732;2023-01-31T06:20:21;101945.25;;;4.02;93.45
43745;BME280;29359;53.048;8.732;2023-01-31T06:22:23;101944.38;;;4.03;93.77
43745;BME280;29359;53.048;8.732;2023-01-31T06:24:24;101939.22;;;4.08;93.99
43745;BME280;29359;53.048;8.732;2023-01-31T06:26:26;101935.75;;;4.07;93.84
43745;BME280;29359;53.048;8.732;2023-01-31T06:28:28;101937.50;;;4.08;93.49
43745;BME280;29359;53.048;8.732;2023-01-31T06:30:29;101928.78;;;4.08;94.00
43745;BME280;29359;53.048;8.732;2023-01-31T06:32:31;101932.28;;;4.10;93.68
43745;BME280;29359;53.048;8.732;2023-01-31T06:34:33;101920.97;;;4.09;94.19
43745;BME280;29359;53.048;8.732;2023-01-31T06:36:34;101930.59;;;4.12;94.00
43745;BME280;29359;53.048;8.732;2023-01-31T06:38:36;101926.28;;;4.16;93.77
43745;BME280;29359;53.048;8.732;2023-01-31T06:40:37;101914.13;;;4.18;94.15
43745;BME280;29359;53.048;8.732;2023-01-31T06:42:39;101909.78;;;4.20;94.42
43745;BME280;29359;53.048;8.732;2023-01-31T06:44:40;101901.94;;;4.20;93.68
43745;BME280;29359;53.048;8.732;2023-01-31T06:46:42;101895.00;;;4.22;94.60
43745;BME280;29359;53.048;8.732;2023-01-31T06:48:43;101888.91;;;4.21;94.37
43745;BME280;29359;53.048;8.732;2023-01-31T06:50:45;101887.16;;;4.22;93.91
43745;BME280;29359;53.048;8.732;2023-01-31T06:52:46;101893.28;;;4.22;94.69
43745;BME280;29359;53.048;8.732;2023-01-31T06:54:48;101885.44;;;4.22;94.30
43745;BME280;29359;53.048;8.732;2023-01-31T06:56:50;101868.88;;;4.22;94.54
43745;BME280;29359;53.048;8.732;2023-01-31T06:58:51;101865.41;;;4.23;95.21
43745;BME280;29359;53.048;8.732;2023-01-31T07:00:53;101857.59;;;4.26;94.25
43745;BME280;29359;53.048;8.732;2023-01-31T07:02:55;101849.75;;;4.26;94.55
43745;BME280;29359;53.048;8.732;2023-01-31T07:04:57;101856.72;;;4.25;94.98
43745;BME280;29359;53.048;8.732;2023-01-31T07:06:58;101859.34;;;4.25;95.23
43745;BME280;29359;53.048;8.732;2023-01-31T07:09:00;101853.28;;;4.28;95.16
43745;BME280;29359;53.048;8.732;2023-01-31T07:11:02;101855.03;;;4.29;94.19
43745;BME280;29359;53.048;8.732;2023-01-31T07:13:04;101848.91;;;4.28;95.18
43745;BME280;29359;53.048;8.732;2023-01-31T07:15:06;101848.09;;;4.31;95.08
43745;BME280;29359;53.048;8.732;2023-01-31T07:17:07;101845.44;;;4.29;94.58
43745;BME280;29359;53.048;8.732;2023-01-31T07:19:09;101845.44;;;4.29;94.90
43745;BME280;29359;53.048;8.732;2023-01-31T07:21:10;101836.78;;;4.33;95.05
43745;BME280;29359;53.048;8.732;2023-01-31T07:23:12;101840.31;;;4.34;94.84
43745;BME280;29359;53.048;8.732;2023-01-31T07:25:13;101843.81;;;4.34;94.40
43745;BME280;29359;53.048;8.732;2023-01-31T07:27:15;101846.41;;;4.34;94.94
43745;BME280;29359;53.048;8.732;2023-01-31T07:29:16;101837.72;;;4.35;94.68
43745;BME280;29359;53.048;8.732;2023-01-31T07:31:18;101835.13;;;4.37;94.67
43745;BME280;29359;53.048;8.732;2023-01-31T07:33:21;101836.03;;;4.39;94.16
43745;BME280;29359;53.048;8.732;2023-01-31T07:35:22;101839.53;;;4.41;94.92
43745;BME280;29359;53.048;8.732;2023-01-31T07:37:24;101829.97;;;4.43;94.52
43745;BME280;29359;53.048;8.732;2023-01-31T07:39:26;101835.22;;;4.45;94.15
43745;BME280;29359;53.048;8.732;2023-01-31T07:41:28;101816.94;;;4.46;94.24
43745;BME280;29359;53.048;8.732;2023-01-31T07:43:31;101817.81;;;4.47;94.88
43745;BME280;29359;53.048;8.732;2023-01-31T07:45:32;101818.72;;;4.49;95.01
43745;BME280;29359;53.048;8.732;2023-01-31T07:47:34;101816.13;;;4.50;94.17
43745;BME280;29359;53.048;8.732;2023-01-31T07:49:36;101800.44;;;4.52;94.45
43745;BME280;29359;53.048;8.732;2023-01-31T07:51:37;101803.06;;;4.53;95.06
43745;BME280;29359;53.048;8.732;2023-01-31T07:53:39;101805.69;;;4.53;95.33
43745;BME280;29359;53.048;8.732;2023-01-31T07:55:42;101805.69;;;4.53;95.41
43745;BME280;29359;53.048;8.732;2023-01-31T07:57:48;101793.50;;;4.55;95.20
43745;BME280;29359;53.048;8.732;2023-01-31T07:59:49;101787.41;;;4.56;95.27
43745;BME280;29359;53.048;8.732;2023-01-31T08:01:51;101787.44;;;4.59;95.31
43745;BME280;29359;53.048;8.732;2023-01-31T08:04:13;101795.34;;;4.62;95.63
43745;BME280;29359;53.048;8.732;2023-01-31T08:06:22;101785.78;;;4.66;94.86
43745;BME280;29359;53.048;8.732;2023-01-31T08:08:24;101778.81;;;4.66;95.07
43745;BME280;29359;53.048;8.732;2023-01-31T08:10:25;101764.88;;;4.67;95.46
43745;BME280;29359;53.048;8.732;2023-01-31T08:12:27;101760.53;;;4.69;95.94
43745;BME280;29359;53.048;8.732;2023-01-31T08:14:29;101744.88;;;4.72;95.50
43745;BME280;29359;53.048;8.732;2023-01-31T08:16:31;101751.88;;;4.77;94.96
43745;BME280;29359;53.048;8.732;2023-01-31T08:18:33;101741.47;;;4.80;95.32
43745;BME280;29359;53.048;8.732;2023-01-31T08:20:35;101742.38;;;4.82;94.81
43745;BME280;29359;53.048;8.732;2023-01-31T08:22:39;101744.13;;;4.83;95.64
43745;BME280;29359;53.048;8.732;2023-01-31T08:24:41;101743.25;;;4.84;95.74
43745;BME280;29359;53.048;8.732;2023-01-31T08:26:42;101744.16;;;4.86;95.47
43745;BME280;29359;53.048;8.732;2023-01-31T08:28:45;101735.44;;;4.87;95.64
43745;BME280;29359;53.048;8.732;2023-01-31T08:30:47;101706.66;;;4.87;96.22
43745;BME280;29359;53.048;8.732;2023-01-31T08:33:09;101711.03;;;4.86;96.24
43745;BME280;29359;53.048;8.732;2023-01-31T08:35:11;101704.91;;;4.86;97.02
43745;BME280;29359;53.048;8.732;2023-01-31T08:37:12;101694.47;;;4.87;96.99
43745;BME280;29359;53.048;8.732;2023-01-31T08:39:16;101705.81;;;4.88;97.48
43745;BME280;29359;53.048;8.732;2023-01-31T08:41:20;101696.25;;;4.91;97.19
43745;BME280;29359;53.048;8.732;2023-01-31T08:43:22;101695.38;;;4.94;96.87
43745;BME280;29359;53.048;8.732;2023-01-31T08:45:24;101703.25;;;4.95;97.24
43745;BME280;29359;53.048;8.732;2023-01-31T08:47:25;101701.50;;;4.94;97.60
43745;BME280;29359;53.048;8.732;2023-01-31T08:49:27;101703.25;;;4.97;97.31
43745;BME280;29359;53.048;8.732;2023-01-31T08:51:29;101704.16;;;5.00;97.25
43745;BME280;29359;53.048;8.732;2023-01-31T08:53:32;101698.06;;;5.01;97.24
43745;BME280;29359;53.048;8.732;2023-01-31T08:55:35;101690.22;;;5.03;97.18
43745;BME280;29359;53.048;8.732;2023-01-31T08:57:37;101700.72;;;5.06;97.19
43745;BME280;29359;53.048;8.732;2023-01-31T08:59:57;101700.75;;;5.09;97.03
43745;BME280;29359;53.048;8.732;2023-01-31T09:01:58;101709.47;;;5.10;96.73
43745;BME280;29359;53.048;8.732;2023-01-31T09:04:00;101687.69;;;5.12;97.32
43745;BME280;29359;53.048;8.732;2023-01-31T09:06:04;101680.69;;;5.13;97.26
43745;BME280;29359;53.048;8.732;2023-01-31T09:08:06;101689.44;;;5.16;96.57
43745;BME280;29359;53.048;8.732;2023-01-31T09:10:08;101684.22;;;5.16;97.06
43745;BME280;29359;53.048;8.732;2023-01-31T09:12:09;101672.88;;;5.17;96.39
43745;BME280;29359;53.048;8.732;2023-01-31T09:14:11;101674.63;;;5.18;96.60
43745;BME280;29359;53.048;8.732;2023-01-31T09:16:13;101662.41;;;5.17;97.28
43745;BME280;29359;53.048;8.732;2023-01-31T09:18:15;101671.19;;;5.21;96.59
43745;BME280;29359;53.048;8.732;2023-01-31T09:20:17;101677.31;;;5.21;97.25
43745;BME280;29359;53.048;8.732;2023-01-31T09:22:19;101669.44;;;5.21;96.61
43745;BME280;29359;53.048;8.732;2023-01-31T09:24:20;101665.97;;;5.24;97.15
43745;BME280;29359;53.048;8.732;2023-01-31T09:26:22;101667.75;;;5.26;97.64
43745;BME280;29359;53.048;8.732;2023-01-31T09:28:24;101660.75;;;5.25;97.31
43745;BME280;29359;53.048;8.732;2023-01-31T09:30:25;101666.88;;;5.26;96.88
43745;BME280;29359;53.048;8.732;2023-01-31T09:32:27;101668.63;;;5.27;97.30
43745;BME280;29359;53.048;8.732;2023-01-31T09:34:30;101661.66;;;5.29;97.59
43745;BME280;29359;53.048;8.732;2023-01-31T09:36:32;101661.66;;;5.30;97.98
43745;BME280;29359;53.048;8.732;2023-01-31T09:38:34;101652.06;;;5.29;98.23
43745;BME280;29359;53.048;8.732;2023-01-31T09:40:38;101652.06;;;5.29;98.78
43745;BME280;29359;53.048;8.732;2023-01-31T09:42:42;101650.31;;;5.30;98.40
43745;BME280;29359;53.048;8.732;2023-01-31T09:44:56;101645.06;;;5.28;98.81
43745;BME280;29359;53.048;8.732;2023-01-31T09:47:19;101655.53;;;5.28;99.13
43745;BME280;29359;53.048;8.732;2023-01-31T09:49:28;101652.91;;;5.28;98.65
43745;BME280;29359;53.048;8.732;2023-01-31T09:51:37;101646.81;;;5.29;98.87
43745;BME280;29359;53.048;8.732;2023-01-31T09:53:39;101642.47;;;5.30;99.86
43745;BME280;29359;53.048;8.732;2023-01-31T10:02:37;101629.38;;;5.31;100.00
43745;BME280;29359;53.048;8.732;2023-01-31T10:09:41;101604.94;;;5.32;100.00
43745;BME280;29359;53.048;8.732;2023-01-31T10:11:46;101606.69;;;5.33;100.00
43745;BME280;29359;53.048;8.732;2023-01-31T10:13:53;101609.31;;;5.35;100.00
43745;BME280;29359;53.048;8.732;2023-01-31T10:16:25;101608.44;;;5.34;100.00
43745;BME280;29359;53.048;8.732;2023-01-31T10:18:39;101604.97;;;5.35;100.00
43745;BME280;29359;53.048;8.732;2023-01-31T10:20:49;101609.31;;;5.36;100.00
43745;BME280;29359;53.048;8.732;2023-01-31T10:23:00;101613.69;;;5.38;100.00
43745;BME280;29359;53.048;8.732;2023-01-31T10:25:26;101598.84;;;5.38;100.00
43745;BME280;29359;53.048;8.732;2023-01-31T10:27:42;101593.63;;;5.40;100.00
43745;BME280;29359;53.048;8.732;2023-01-31T10:29:51;101584.91;;;5.39;100.00
43745;BME280;29359;53.048;8.732;2023-01-31T10:36:08;101593.63;;;5.41;100.00
43745;BME280;29359;53.048;8.732;2023-01-31T10:38:20;101591.88;;;5.40;100.00
43745;BME280;29359;53.048;8.732;2023-01-31T10:40:43;101594.50;;;5.39;100.00
43745;BME280;29359;53.048;8.732;2023-01-31T10:42:53;101594.50;;;5.40;100.00
43745;BME280;29359;53.048;8.732;2023-01-31T10:46:59;101577.94;;;5.44;100.00
43745;BME280;29359;53.048;8.732;2023-01-31T10:49:01;101570.09;;;5.44;100.00
43745;BME280;29359;53.048;8.732;2023-01-31T10:53:47;101584.06;;;5.48;100.00
43745;BME280;29359;53.048;8.732;2023-01-31T10:56:06;101574.47;;;5.50;100.00
43745;BME280;29359;53.048;8.732;2023-01-31T10:58:16;101568.38;;;5.51;100.00
43745;BME280;29359;53.048;8.732;2023-01-31T11:00:21;101552.66;;;5.51;100.00
43745;BME280;29359;53.048;8.732;2023-01-31T11:02:27;101565.75;;;5.52;100.00
43745;BME280;29359;53.048;8.732;2023-01-31T11:04:35;101564.00;;;5.53;100.00
43745;BME280;29359;53.048;8.732;2023-01-31T11:06:38;101555.28;;;5.54;100.00
43745;BME280;29359;53.048;8.732;2023-01-31T11:08:47;101542.19;;;5.57;100.00
43745;BME280;29359;53.048;8.732;2023-01-31T11:10:52;101547.44;;;5.60;100.00
43745;BME280;29359;53.048;8.732;2023-01-31T11:12:57;101537.84;;;5.62;100.00
43745;BME280;29359;53.048;8.732;2023-01-31T11:15:04;101545.72;;;5.63;100.00
43745;BME280;29359;53.048;8.732;2023-01-31T11:17:19;101545.75;;;5.66;100.00
43745;BME280;29359;53.048;8.732;2023-01-31T11:21:33;101543.13;;;5.70;100.00
43745;BME280;29359;53.048;8.732;2023-01-31T11:23:36;101541.38;;;5.68;100.00
43745;BME280;29359;53.048;8.732;2023-01-31T11:25:38;101543.13;;;5.68;100.00
43745;BME280;29359;53.048;8.732;2023-01-31T11:27:41;101551.88;;;5.68;100.00
43745;BME280;29359;53.048;8.732;2023-01-31T11:29:48;101542.25;;;5.71;100.00
43745;BME280;29359;53.048;8.732;2023-01-31T11:31:51;101545.75;;;5.71;100.00
43745;BME280;29359;53.048;8.732;2023-01-31T11:34:00;101537.03;;;5.72;100.00
43745;BME280;29359;53.048;8.732;2023-01-31T11:36:12;101534.41;;;5.72;100.00
43745;BME280;29359;53.048;8.732;2023-01-31T11:38:19;101537.03;;;5.74;100.00
43745;BME280;29359;53.048;8.732;2023-01-31T11:40:36;101521.31;;;5.74;100.00
43745;BME280;29359;53.048;8.732;2023-01-31T11:42:53;101510.84;;;5.75;100.00
43745;BME280;29359;53.048;8.732;2023-01-31T11:45:16;101507.34;;;5.76;100.00
43745;BME280;29359;53.048;8.732;2023-01-31T11:49:32;101509.09;;;5.82;100.00
43745;BME280;29359;53.048;8.732;2023-01-31T11:51:35;101511.72;;;5.80;100.00
43745;BME280;29359;53.048;8.732;2023-01-31T11:53:37;101510.84;;;5.81;100.00
43745;BME280;29359;53.048;8.732;2023-01-31T11:55:45;101513.47;;;5.83;100.00
43745;BME280;29359;53.048;8.732;2023-01-31T11:57:54;101516.97;;;5.85;100.00